Time,TemperatureF,DewpointF,PressureIn,WindDirection,WindDirectionDegrees,WindSpeedMPH,WindSpeedGustMPH,Humidity,HourlyPrecipIn,Conditions,Clouds,dailyrainin,SoftwareType,DateUTC
2013-04-27 00:00:00,52.1,42.2,30.38,SW,227,6.0,6.0,69,0.00,,CLR,0.00,VWS V14.01,2013-04-27 04:00:00,
2013-04-27 00:01:00,52.1,42.2,30.38,WSW,240,6.0,6.0,69,0.00,,CLR,0.00,VWS V14.01,2013-04-27 04:01:00,
2013-04-27 00:06:00,52.1,41.9,30.38,SW,232,3.0,5.0,68,0.00,,CLR,0.00,VWS V14.01,2013-04-27 04:06:00,
2013-04-27 00:11:00,52.1,41.9,30.38,WSW,243,4.0,5.0,68,0.00,,CLR,0.00,VWS V14.01,2013-04-27 04:11:00,
2013-04-27 00:16:00,52.0,41.4,30.38,WSW,253,3.0,5.0,67,0.00,,CLR,0.00,VWS V14.01,2013-04-27 04:16:00,
2013-04-27 00:21:00,51.9,41.3,30.38,WSW,257,4.0,6.0,67,0.00,,CLR,0.00,VWS V14.01,2013-04-27 04:21:00,
2013-04-27 00:26:00,51.9,41.3,30.38,WSW,240,3.0,5.0,67,0.00,,CLR,0.00,VWS V14.01,2013-04-27 04:26:00,
2013-04-27 00:31:00,51.8,41.6,30.38,West,261,3.0,5.0,68,0.00,,CLR,0.00,VWS V14.01,2013-04-27 04:31:00,
2013-04-27 00:36:00,51.7,41.5,30.38,WSW,255,3.0,6.0,68,0.00,,CLR,0.00,VWS V14.01,2013-04-27 04:36:00,
2013-04-27 00:41:00,51.6,41.8,30.38,West,267,4.0,5.0,69,0.00,,CLR,0.00,VWS V14.01,2013-04-27 04:41:00,
2013-04-27 00:46:00,51.4,42.3,30.38,WSW,250,5.0,6.0,71,0.00,,CLR,0.00,VWS V14.01,2013-04-27 04:46:00,
2013-04-27 00:51:00,51.2,42.5,30.38,West,267,5.0,6.0,72,0.00,,CLR,0.00,VWS V14.01,2013-04-27 04:51:00,
2013-04-27 00:56:00,51.0,42.3,30.38,West,265,5.0,5.0,72,0.00,,CLR,0.00,VWS V14.01,2013-04-27 04:56:00,
2013-04-27 01:01:00,50.8,42.1,30.38,WSW,246,5.0,5.0,72,0.00,,CLR,0.00,VWS V14.01,2013-04-27 05:01:00,
2013-04-27 01:06:00,50.8,41.8,30.38,West,261,4.0,6.0,71,0.00,,CLR,0.00,VWS V14.01,2013-04-27 05:06:00,
2013-04-27 01:11:00,50.7,42.4,30.38,West,279,3.0,3.0,73,0.00,,CLR,0.00,VWS V14.01,2013-04-27 05:11:00,
2013-04-27 01:16:00,50.0,42.4,30.38,West,274,4.0,5.0,75,0.00,,CLR,0.00,VWS V14.01,2013-04-27 05:16:00,
2013-04-27 01:21:00,49.4,41.5,30.38,West,279,3.0,4.0,74,0.00,,CLR,0.00,VWS V14.01,2013-04-27 05:21:00,
2013-04-27 01:26:00,49.1,41.9,30.38,WNW,286,3.0,4.0,76,0.00,,CLR,0.00,VWS V14.01,2013-04-27 05:26:00,
2013-04-27 01:31:00,48.7,41.8,30.38,WNW,284,4.0,5.0,77,0.00,,CLR,0.00,VWS V14.01,2013-04-27 05:31:00,
2013-04-27 01:36:00,48.5,42.0,30.38,West,278,4.0,5.0,78,0.00,,CLR,0.00,VWS V14.01,2013-04-27 05:36:00,
2013-04-27 01:41:00,48.7,41.5,30.38,WNW,282,3.0,4.0,76,0.00,,CLR,0.00,VWS V14.01,2013-04-27 05:41:00,
2013-04-27 01:46:00,48.9,41.3,30.37,WNW,284,3.0,3.0,75,0.00,,CLR,0.00,VWS V14.01,2013-04-27 05:46:00,
2013-04-27 01:51:00,48.9,41.3,30.37,West,277,3.0,4.0,75,0.00,,CLR,0.00,VWS V14.01,2013-04-27 05:51:00,
2013-04-27 01:56:00,48.8,40.9,30.37,West,280,3.0,4.0,74,0.00,,CLR,0.00,VWS V14.01,2013-04-27 05:56:00,
2013-04-27 02:01:00,49.0,41.1,30.37,WNW,282,4.0,5.0,74,0.00,,CLR,0.00,VWS V14.01,2013-04-27 06:01:00,
2013-04-27 02:06:00,49.1,40.8,30.37,West,274,4.0,4.0,73,0.00,,CLR,0.00,VWS V14.01,2013-04-27 06:06:00,
2013-04-27 02:11:00,49.1,41.2,30.37,West,269,4.0,5.0,74,0.00,,CLR,0.00,VWS V14.01,2013-04-27 06:11:00,
2013-04-27 02:16:00,49.2,41.3,30.37,West,270,3.0,5.0,74,0.00,,CLR,0.00,VWS V14.01,2013-04-27 06:16:00,
2013-04-27 02:21:00,49.2,41.3,30.36,West,269,3.0,4.0,74,0.00,,CLR,0.00,VWS V14.01,2013-04-27 06:21:00,
2013-04-27 02:26:00,49.2,41.3,30.36,West,264,4.0,4.0,74,0.00,,CLR,0.00,VWS V14.01,2013-04-27 06:26:00,
2013-04-27 02:31:00,49.2,41.6,30.36,West,272,4.0,5.0,75,0.00,,CLR,0.00,VWS V14.01,2013-04-27 06:31:00,
2013-04-27 02:36:00,49.4,41.8,30.36,West,279,4.0,4.0,75,0.00,,CLR,0.00,VWS V14.01,2013-04-27 06:36:00,
2013-04-27 02:41:00,49.5,41.9,30.36,West,276,5.0,5.0,75,0.00,,CLR,0.00,VWS V14.01,2013-04-27 06:41:00,
2013-04-27 02:46:00,49.6,42.0,30.36,WNW,282,4.0,5.0,75,0.00,,CLR,0.00,VWS V14.01,2013-04-27 06:46:00,
2013-04-27 02:51:00,49.6,42.0,30.36,WNW,286,4.0,4.0,75,0.00,,CLR,0.00,VWS V14.01,2013-04-27 06:51:00,
2013-04-27 02:56:00,49.4,41.8,30.36,WNW,288,4.0,4.0,75,0.00,,CLR,0.00,VWS V14.01,2013-04-27 06:56:00,
2013-04-27 03:01:00,49.2,42.0,30.36,WNW,293,3.0,4.0,76,0.00,,CLR,0.00,VWS V14.01,2013-04-27 07:01:00,
2013-04-27 03:06:00,49.0,42.1,30.36,WNW,292,4.0,4.0,77,0.00,,CLR,0.00,VWS V14.01,2013-04-27 07:06:00,
2013-04-27 03:11:00,48.9,42.3,30.36,WNW,290,3.0,4.0,78,0.00,,CLR,0.00,VWS V14.01,2013-04-27 07:11:00,
2013-04-27 03:16:00,48.9,42.3,30.36,West,281,4.0,4.0,78,0.00,,CLR,0.00,VWS V14.01,2013-04-27 07:16:00,
2013-04-27 03:21:00,48.8,41.9,30.36,West,273,4.0,4.0,77,0.00,,CLR,0.00,VWS V14.01,2013-04-27 07:21:00,
2013-04-27 03:26:00,48.8,42.6,30.36,WNW,284,4.0,4.0,79,0.00,,CLR,0.00,VWS V14.01,2013-04-27 07:26:00,
2013-04-27 03:31:00,48.7,42.5,30.36,WNW,289,2.0,2.0,79,0.00,,CLR,0.00,VWS V14.01,2013-04-27 07:31:00,
2013-04-27 03:36:00,48.4,41.9,30.36,North,360,3.0,3.0,78,0.00,,CLR,0.00,VWS V14.01,2013-04-27 07:36:00,
2013-04-27 03:41:00,48.0,42.1,30.36,NE,34,3.0,3.0,80,0.00,,CLR,0.00,VWS V14.01,2013-04-27 07:41:00,
2013-04-27 03:46:00,47.6,42.4,30.36,NE,34,1.0,2.0,82,0.00,,CLR,0.00,VWS V14.01,2013-04-27 07:46:00,
2013-04-27 03:51:00,47.3,42.4,30.36,NNW,335,2.0,2.0,83,0.00,,CLR,0.00,VWS V14.01,2013-04-27 07:51:00,
2013-04-27 03:56:00,47.1,42.5,30.36,NNW,335,2.0,2.0,84,0.00,,CLR,0.00,VWS V14.01,2013-04-27 07:56:00,
2013-04-27 04:01:00,46.8,42.5,30.36,NNW,335,1.0,2.0,85,0.00,,CLR,0.00,VWS V14.01,2013-04-27 08:01:00,
2013-04-27 04:06:00,46.6,42.3,30.36,NNW,335,1.0,1.0,85,0.00,,CLR,0.00,VWS V14.01,2013-04-27 08:06:00,
2013-04-27 04:11:00,46.4,41.8,30.36,NNW,335,0.0,1.0,84,0.00,,CLR,0.00,VWS V14.01,2013-04-27 08:11:00,
2013-04-27 04:16:00,46.2,42.0,30.36,NNW,335,0.0,0.0,85,0.00,,CLR,0.00,VWS V14.01,2013-04-27 08:16:00,
2013-04-27 04:21:00,46.2,42.2,30.36,NNW,335,0.0,0.0,86,0.00,,CLR,0.00,VWS V14.01,2013-04-27 08:21:00,
2013-04-27 04:26:00,46.1,41.8,30.36,NNW,335,0.0,0.0,85,0.00,,CLR,0.00,VWS V14.01,2013-04-27 08:26:00,
2013-04-27 04:31:00,45.9,41.7,30.36,NNW,335,0.0,0.0,85,0.00,,CLR,0.00,VWS V14.01,2013-04-27 08:31:00,
2013-04-27 04:36:00,45.7,41.8,30.36,NNW,335,0.0,0.0,86,0.00,,CLR,0.00,VWS V14.01,2013-04-27 08:36:00,
2013-04-27 04:41:00,45.7,42.7,30.36,NNW,335,0.0,0.0,89,0.00,,CLR,0.00,VWS V14.01,2013-04-27 08:41:00,
2013-04-27 04:46:00,45.8,43.0,30.36,NNW,335,0.0,0.0,90,0.00,,CLR,0.00,VWS V14.01,2013-04-27 08:46:00,
2013-04-27 04:51:00,45.7,42.9,30.36,NNW,335,0.0,0.0,90,0.00,,CLR,0.00,VWS V14.01,2013-04-27 08:51:00,
2013-04-27 04:56:00,45.5,42.7,30.36,NNW,335,0.0,0.0,90,0.00,,CLR,0.00,VWS V14.01,2013-04-27 08:56:00,
2013-04-27 05:01:00,45.3,42.5,30.36,NNW,335,0.0,0.0,90,0.00,,CLR,0.00,VWS V14.01,2013-04-27 09:01:00,
2013-04-27 05:06:00,45.0,42.2,30.36,NNW,335,0.0,0.0,90,0.00,,CLR,0.00,VWS V14.01,2013-04-27 09:06:00,
2013-04-27 05:11:00,44.7,42.0,30.36,NNW,335,0.0,0.0,90,0.00,,CLR,0.00,VWS V14.01,2013-04-27 09:11:00,
2013-04-27 05:16:00,44.5,41.5,30.36,NNW,335,0.0,0.0,89,0.00,,CLR,0.00,VWS V14.01,2013-04-27 09:16:00,
2013-04-27 05:21:00,44.4,41.7,30.36,NNW,327,0.0,0.0,90,0.00,,CLR,0.00,VWS V14.01,2013-04-27 09:21:00,
2013-04-27 05:26:00,44.3,41.6,30.36,NNW,327,0.0,0.0,90,0.00,,CLR,0.00,VWS V14.01,2013-04-27 09:26:00,
2013-04-27 05:31:00,44.3,41.8,30.36,West,265,2.0,2.0,91,0.00,,CLR,0.00,VWS V14.01,2013-04-27 09:31:00,
2013-04-27 05:36:00,44.6,42.4,30.36,WSW,241,1.0,2.0,92,0.00,,CLR,0.00,VWS V14.01,2013-04-27 09:36:00,
2013-04-27 05:41:00,44.6,42.1,30.37,WSW,241,1.0,1.0,91,0.00,,CLR,0.00,VWS V14.01,2013-04-27 09:41:00,
2013-04-27 05:46:00,44.5,41.8,30.37,WSW,241,0.0,0.0,90,0.00,,CLR,0.00,VWS V14.01,2013-04-27 09:46:00,
2013-04-27 05:50:00,44.2,41.5,30.37,WSW,241,0.0,0.0,90,0.00,,CLR,0.00,VWS V14.01,2013-04-27 09:50:00,
2013-04-27 05:56:00,44.0,41.3,30.37,WSW,241,0.0,0.0,90,0.00,,CLR,0.00,VWS V14.01,2013-04-27 09:56:00,
2013-04-27 06:01:00,43.7,41.0,30.37,West,259,0.0,0.0,90,0.00,,CLR,0.00,VWS V14.01,2013-04-27 10:01:00,
2013-04-27 06:06:00,43.9,41.7,30.37,NW,308,1.0,1.0,92,0.00,,CLR,0.00,VWS V14.01,2013-04-27 10:06:00,
2013-04-27 06:11:00,43.8,41.3,30.37,NW,308,0.0,0.0,91,0.00,,CLR,0.00,VWS V14.01,2013-04-27 10:11:00,
2013-04-27 06:16:00,43.7,41.5,30.38,NW,308,1.0,1.0,92,0.00,,CLR,0.00,VWS V14.01,2013-04-27 10:16:00,
2013-04-27 06:21:00,43.7,41.8,30.38,North,5,3.0,3.0,93,0.00,,CLR,0.00,VWS V14.01,2013-04-27 10:21:00,
2013-04-27 06:26:00,43.8,41.9,30.38,North,360,2.0,2.0,93,0.00,,CLR,0.00,VWS V14.01,2013-04-27 10:26:00,
2013-04-27 06:31:00,44.1,42.5,30.38,North,355,3.0,3.0,94,0.00,,CLR,0.00,VWS V14.01,2013-04-27 10:31:00,
2013-04-27 06:36:00,44.3,42.7,30.38,North,9,3.0,4.0,94,0.00,,CLR,0.00,VWS V14.01,2013-04-27 10:36:00,
2013-04-27 06:41:00,44.6,43.0,30.38,NNE,17,4.0,4.0,94,0.00,,CLR,0.00,VWS V14.01,2013-04-27 10:41:00,
2013-04-27 06:46:00,44.8,43.2,30.38,NNE,28,4.0,4.0,94,0.00,,CLR,0.00,VWS V14.01,2013-04-27 10:46:00,
2013-04-27 06:51:00,45.1,43.2,30.38,NNE,24,3.0,4.0,93,0.00,,CLR,0.00,VWS V14.01,2013-04-27 10:51:00,
2013-04-27 06:56:00,45.5,43.3,30.39,NNE,28,2.0,3.0,92,0.00,,CLR,0.00,VWS V14.01,2013-04-27 10:56:00,
2013-04-27 07:01:00,46.0,43.5,30.39,NNE,28,4.0,4.0,91,0.00,,CLR,0.00,VWS V14.01,2013-04-27 11:01:00,
2013-04-27 07:06:00,46.6,43.5,30.39,NE,34,3.0,3.0,89,0.00,,CLR,0.00,VWS V14.01,2013-04-27 11:06:00,
2013-04-27 07:11:00,47.1,43.4,30.39,NNE,24,3.0,5.0,87,0.00,,CLR,0.00,VWS V14.01,2013-04-27 11:11:00,
2013-04-27 07:16:00,47.7,43.4,30.39,NE,40,2.0,2.0,85,0.00,,CLR,0.00,VWS V14.01,2013-04-27 11:16:00,
2013-04-27 07:21:00,48.2,43.9,30.39,NE,34,3.0,4.0,85,0.00,,CLR,0.00,VWS V14.01,2013-04-27 11:21:00,
2013-04-27 07:26:00,48.7,43.8,30.39,NNE,33,4.0,5.0,83,0.00,,CLR,0.00,VWS V14.01,2013-04-27 11:26:00,
2013-04-27 07:31:00,49.3,44.0,30.39,NE,41,4.0,5.0,82,0.00,,CLR,0.00,VWS V14.01,2013-04-27 11:31:00,
2013-04-27 07:35:00,50.1,44.5,30.39,NE,44,3.0,5.0,81,0.00,,CLR,0.00,VWS V14.01,2013-04-27 11:35:00,
2013-04-27 07:40:00,50.8,44.5,30.39,NE,34,4.0,5.0,79,0.00,,CLR,0.00,VWS V14.01,2013-04-27 11:40:00,
2013-04-27 07:46:00,51.3,45.0,30.39,NE,46,4.0,4.0,79,0.00,,CLR,0.00,VWS V14.01,2013-04-27 11:46:00,
2013-04-27 07:50:00,51.7,44.0,30.39,NE,38,5.0,5.0,75,0.00,,CLR,0.00,VWS V14.01,2013-04-27 11:50:00,
2013-04-27 07:55:00,52.4,45.1,30.39,NE,52,4.0,5.0,76,0.00,,CLR,0.00,VWS V14.01,2013-04-27 11:55:00,
2013-04-27 08:00:00,52.9,44.8,30.39,NE,56,6.0,6.0,74,0.00,,CLR,0.00,VWS V14.01,2013-04-27 12:00:00,
2013-04-27 08:05:00,53.5,45.8,30.40,NE,37,4.0,5.0,75,0.00,,CLR,0.00,VWS V14.01,2013-04-27 12:05:00,
2013-04-27 08:10:00,54.0,45.5,30.40,NE,41,4.0,5.0,73,0.00,,CLR,0.00,VWS V14.01,2013-04-27 12:10:00,
2013-04-27 08:15:00,54.5,46.4,30.40,ENE,58,4.0,5.0,74,0.00,,CLR,0.00,VWS V14.01,2013-04-27 12:15:00,
2013-04-27 08:20:00,54.9,46.1,30.40,ENE,57,7.0,7.0,72,0.00,,CLR,0.00,VWS V14.01,2013-04-27 12:20:00,
2013-04-27 08:25:00,55.1,46.2,30.40,ENE,59,8.0,9.0,72,0.00,,CLR,0.00,VWS V14.01,2013-04-27 12:25:00,
2013-04-27 08:30:00,55.3,46.1,30.40,ENE,59,10.0,11.0,71,0.00,,CLR,0.00,VWS V14.01,2013-04-27 12:30:00,
2013-04-27 08:35:00,55.5,46.3,30.40,NE,49,7.0,9.0,71,0.00,,CLR,0.00,VWS V14.01,2013-04-27 12:35:00,
2013-04-27 08:40:00,55.7,46.5,30.40,NE,54,8.0,9.0,71,0.00,,CLR,0.00,VWS V14.01,2013-04-27 12:40:00,
2013-04-27 08:45:00,56.0,46.4,30.40,NE,53,11.0,11.0,70,0.00,,CLR,0.00,VWS V14.01,2013-04-27 12:45:00,
2013-04-27 08:50:00,56.2,46.9,30.40,ENE,69,12.0,12.0,71,0.00,,CLR,0.00,VWS V14.01,2013-04-27 12:50:00,
2013-04-27 08:55:00,56.4,46.0,30.40,NE,56,13.0,13.0,68,0.00,,CLR,0.00,VWS V14.01,2013-04-27 12:55:00,
2013-04-27 09:00:00,56.5,46.1,30.41,ENE,63,10.0,12.0,68,0.00,,CLR,0.00,VWS V14.01,2013-04-27 13:00:00,
2013-04-27 09:05:00,56.6,45.4,30.41,ENE,57,12.0,14.0,66,0.00,,CLR,0.00,VWS V14.01,2013-04-27 13:05:00,
2013-04-27 09:10:00,56.8,46.0,30.40,ENE,57,10.0,12.0,67,0.00,,CLR,0.00,VWS V14.01,2013-04-27 13:10:00,
2013-04-27 09:15:00,56.9,46.1,30.40,ENE,66,11.0,13.0,67,0.00,,CLR,0.00,VWS V14.01,2013-04-27 13:15:00,
2013-04-27 09:20:00,57.1,46.7,30.40,ENE,60,10.0,12.0,68,0.00,,CLR,0.00,VWS V14.01,2013-04-27 13:20:00,
2013-04-27 09:25:00,57.3,46.5,30.40,NE,53,10.0,11.0,67,0.00,,CLR,0.00,VWS V14.01,2013-04-27 13:25:00,
2013-04-27 09:30:00,57.6,46.3,30.40,ENE,69,14.0,14.0,66,0.00,,CLR,0.00,VWS V14.01,2013-04-27 13:30:00,
2013-04-27 09:35:00,58.1,47.6,30.40,NE,48,9.0,10.0,68,0.00,,CLR,0.00,VWS V14.01,2013-04-27 13:35:00,
2013-04-27 09:40:00,58.5,46.8,30.40,NE,51,11.0,13.0,65,0.00,,CLR,0.00,VWS V14.01,2013-04-27 13:40:00,
2013-04-27 09:48:00,58.7,45.3,30.40,ENE,58,13.0,13.0,61,0.00,,CLR,0.00,VWS V14.01,2013-04-27 13:48:00,
2013-04-27 09:53:00,58.5,45.5,30.40,ENE,64,13.0,13.0,62,0.00,,CLR,0.00,VWS V14.01,2013-04-27 13:53:00,
2013-04-27 09:58:00,58.5,45.5,30.40,ENE,78,11.0,11.0,62,0.00,,CLR,0.00,VWS V14.01,2013-04-27 13:58:00,
2013-04-27 10:03:00,58.7,45.7,30.40,ENE,71,11.0,14.0,62,0.00,,CLR,0.00,VWS V14.01,2013-04-27 14:03:00,
2013-04-27 10:08:00,59.1,45.7,30.40,ENE,62,13.0,14.0,61,0.00,,CLR,0.00,VWS V14.01,2013-04-27 14:08:00,
2013-04-27 10:13:00,59.2,45.8,30.40,ENE,74,14.0,15.0,61,0.00,,CLR,0.00,VWS V14.01,2013-04-27 14:13:00,
2013-04-27 10:18:00,59.6,45.7,30.40,ENE,67,12.0,12.0,60,0.00,,CLR,0.00,VWS V14.01,2013-04-27 14:18:00,
2013-04-27 10:23:00,59.9,45.1,30.40,ENE,59,12.0,13.0,58,0.00,,CLR,0.00,VWS V14.01,2013-04-27 14:23:00,
2013-04-27 10:28:00,59.9,45.5,30.40,ENE,67,13.0,13.0,59,0.00,,CLR,0.00,VWS V14.01,2013-04-27 14:28:00,
2013-04-27 10:33:00,59.9,45.1,30.40,ENE,69,14.0,16.0,58,0.00,,CLR,0.00,VWS V14.01,2013-04-27 14:33:00,
2013-04-27 10:38:00,59.9,46.0,30.40,ENE,71,11.0,11.0,60,0.00,,CLR,0.00,VWS V14.01,2013-04-27 14:38:00,
2013-04-27 10:43:00,60.0,46.1,30.40,ENE,71,13.0,14.0,60,0.00,,CLR,0.00,VWS V14.01,2013-04-27 14:43:00,
2013-04-27 10:48:00,60.2,45.8,30.40,ENE,67,12.0,13.0,59,0.00,,CLR,0.00,VWS V14.01,2013-04-27 14:48:00,
2013-04-27 10:53:00,60.2,47.2,30.40,ENE,71,14.0,14.0,62,0.00,,CLR,0.00,VWS V14.01,2013-04-27 14:53:00,
2013-04-27 10:58:00,60.1,46.2,30.40,ENE,65,11.0,11.0,60,0.00,,CLR,0.00,VWS V14.01,2013-04-27 14:58:00,
2013-04-27 11:03:00,60.3,47.2,30.40,ENE,65,12.0,14.0,62,0.00,,CLR,0.00,VWS V14.01,2013-04-27 15:03:00,
2013-04-27 11:08:00,60.4,46.0,30.41,ENE,66,12.0,13.0,59,0.00,,CLR,0.00,VWS V14.01,2013-04-27 15:08:00,
2013-04-27 11:13:00,60.5,46.1,30.40,ENE,57,12.0,13.0,59,0.00,,CLR,0.00,VWS V14.01,2013-04-27 15:13:00,
2013-04-27 11:18:00,60.3,46.4,30.40,ENE,63,11.0,11.0,60,0.00,,CLR,0.00,VWS V14.01,2013-04-27 15:18:00,
2013-04-27 11:23:00,60.6,46.7,30.40,NE,55,11.0,12.0,60,0.00,,CLR,0.00,VWS V14.01,2013-04-27 15:23:00,
2013-04-27 11:28:00,61.1,46.7,30.40,NE,53,11.0,11.0,59,0.00,,CLR,0.00,VWS V14.01,2013-04-27 15:28:00,
2013-04-27 11:33:00,61.3,46.4,30.40,NE,38,9.0,10.0,58,0.00,,CLR,0.00,VWS V14.01,2013-04-27 15:33:00,
2013-04-27 11:38:00,61.7,46.3,30.40,NE,51,8.0,11.0,57,0.00,,CLR,0.00,VWS V14.01,2013-04-27 15:38:00,
2013-04-27 11:43:00,61.9,47.4,30.40,ENE,58,7.0,9.0,59,0.00,,CLR,0.00,VWS V14.01,2013-04-27 15:43:00,
2013-04-27 11:48:00,62.3,46.4,30.40,ENE,67,8.0,9.0,56,0.00,,CLR,0.00,VWS V14.01,2013-04-27 15:48:00,
2013-04-27 11:53:00,62.5,46.6,30.40,NE,43,8.0,9.0,56,0.00,,CLR,0.00,VWS V14.01,2013-04-27 15:53:00,
2013-04-27 11:58:00,62.7,46.3,30.40,ENE,62,7.0,9.0,55,0.00,,CLR,0.00,VWS V14.01,2013-04-27 15:58:00,
2013-04-27 12:03:00,63.1,46.7,30.40,ENE,64,7.0,9.0,55,0.00,,CLR,0.00,VWS V14.01,2013-04-27 16:03:00,
2013-04-27 12:08:00,63.5,47.1,30.40,ENE,65,9.0,9.0,55,0.00,,CLR,0.00,VWS V14.01,2013-04-27 16:08:00,
2013-04-27 12:13:00,63.9,46.5,30.39,NE,54,7.0,8.0,53,0.00,,CLR,0.00,VWS V14.01,2013-04-27 16:13:00,
2013-04-27 12:18:00,64.0,46.5,30.39,NE,54,7.0,8.0,53,0.00,,CLR,0.00,VWS V14.01,2013-04-27 16:18:00,
2013-04-27 12:23:00,64.0,46.5,30.39,East,80,6.0,8.0,53,0.00,,CLR,0.00,VWS V14.01,2013-04-27 16:23:00,
2013-04-27 12:28:00,64.1,46.1,30.39,ENE,74,5.0,9.0,52,0.00,,CLR,0.00,VWS V14.01,2013-04-27 16:28:00,
2013-04-27 12:33:00,64.3,46.8,30.38,ENE,67,10.0,10.0,53,0.00,,CLR,0.00,VWS V14.01,2013-04-27 16:33:00,
2013-04-27 12:38:00,64.5,45.5,30.38,East,79,6.0,9.0,50,0.00,,CLR,0.00,VWS V14.01,2013-04-27 16:38:00,
2013-04-27 12:43:00,64.4,44.8,30.38,ENE,58,5.0,9.0,49,0.00,,CLR,0.00,VWS V14.01,2013-04-27 16:43:00,
2013-04-27 12:48:00,64.3,44.2,30.38,ENE,70,8.0,9.0,48,0.00,,CLR,0.00,VWS V14.01,2013-04-27 16:48:00,
2013-04-27 12:53:00,64.5,44.9,30.38,East,79,7.0,9.0,49,0.00,,CLR,0.00,VWS V14.01,2013-04-27 16:53:00,
2013-04-27 12:58:00,64.6,44.5,30.38,ENE,70,4.0,6.0,48,0.00,,CLR,0.00,VWS V14.01,2013-04-27 16:58:00,
2013-04-27 13:03:00,64.8,44.7,30.38,East,91,5.0,7.0,48,0.00,,CLR,0.00,VWS V14.01,2013-04-27 17:03:00,
2013-04-27 13:08:00,64.7,42.9,30.38,East,82,8.0,9.0,45,0.00,,CLR,0.00,VWS V14.01,2013-04-27 17:08:00,
2013-04-27 13:13:00,64.3,43.7,30.38,East,88,6.0,9.0,47,0.00,,CLR,0.00,VWS V14.01,2013-04-27 17:13:00,
2013-04-27 13:18:00,64.3,44.2,30.37,ENE,72,7.0,7.0,48,0.00,,CLR,0.00,VWS V14.01,2013-04-27 17:18:00,
2013-04-27 13:23:00,64.8,45.7,30.37,East,87,6.0,8.0,50,0.00,,CLR,0.00,VWS V14.01,2013-04-27 17:23:00,
2013-04-27 13:28:00,65.1,44.4,30.37,ESE,117,4.0,7.0,47,0.00,,CLR,0.00,VWS V14.01,2013-04-27 17:28:00,
2013-04-27 13:33:00,65.0,47.0,30.37,ESE,103,8.0,8.0,52,0.00,,CLR,0.00,VWS V14.01,2013-04-27 17:33:00,
2013-04-27 13:38:00,65.4,46.3,30.37,ESE,115,7.0,7.0,50,0.00,,CLR,0.00,VWS V14.01,2013-04-27 17:38:00,
2013-04-27 13:43:00,65.0,44.8,30.37,SE,131,10.0,11.0,48,0.00,,CLR,0.00,VWS V14.01,2013-04-27 17:43:00,
2013-04-27 13:48:00,63.6,46.2,30.37,ESE,115,9.0,9.0,53,0.00,,CLR,0.00,VWS V14.01,2013-04-27 17:48:00,
2013-04-27 13:53:00,63.5,45.1,30.37,ESE,119,10.0,11.0,51,0.00,,CLR,0.00,VWS V14.01,2013-04-27 17:53:00,
2013-04-27 13:58:00,63.3,46.4,30.37,ESE,121,8.0,8.0,54,0.00,,CLR,0.00,VWS V14.01,2013-04-27 17:58:00,
2013-04-27 14:03:00,63.5,47.5,30.36,SE,132,8.0,9.0,56,0.00,,CLR,0.00,VWS V14.01,2013-04-27 18:03:00,
2013-04-27 14:08:00,63.6,47.2,30.36,ESE,119,7.0,10.0,55,0.00,,CLR,0.00,VWS V14.01,2013-04-27 18:08:00,
2013-04-27 14:13:00,63.6,45.7,30.36,SE,130,10.0,10.0,52,0.00,,CLR,0.00,VWS V14.01,2013-04-27 18:13:00,
2013-04-27 14:18:00,63.1,45.2,30.36,SE,136,9.0,9.0,52,0.00,,CLR,0.00,VWS V14.01,2013-04-27 18:18:00,
2013-04-27 14:23:00,62.4,47.5,30.36,SE,127,9.0,11.0,58,0.00,,CLR,0.00,VWS V14.01,2013-04-27 18:23:00,
2013-04-27 14:28:00,62.7,46.8,30.36,SE,127,6.0,9.0,56,0.00,,CLR,0.00,VWS V14.01,2013-04-27 18:28:00,
2013-04-27 14:33:00,63.1,48.1,30.36,SE,138,5.0,5.0,58,0.00,,CLR,0.00,VWS V14.01,2013-04-27 18:33:00,
2013-04-27 14:38:00,63.7,46.3,30.36,SE,124,6.0,6.0,53,0.00,,CLR,0.00,VWS V14.01,2013-04-27 18:38:00,
2013-04-27 14:43:00,64.0,46.5,30.35,SE,144,6.0,8.0,53,0.00,,CLR,0.00,VWS V14.01,2013-04-27 18:43:00,
2013-04-27 14:48:00,63.9,47.9,30.35,SE,127,6.0,7.0,56,0.00,,CLR,0.00,VWS V14.01,2013-04-27 18:48:00,
2013-04-27 14:53:00,64.0,47.0,30.35,ESE,120,8.0,8.0,54,0.00,,CLR,0.00,VWS V14.01,2013-04-27 18:53:00,
2013-04-27 14:58:00,63.6,47.2,30.35,SSE,148,5.0,7.0,55,0.00,,CLR,0.00,VWS V14.01,2013-04-27 18:58:00,
2013-04-27 15:03:00,63.5,46.6,30.34,SE,130,4.0,9.0,54,0.00,,CLR,0.00,VWS V14.01,2013-04-27 19:03:00,
2013-04-27 15:08:00,63.6,46.7,30.34,ESE,114,7.0,9.0,54,0.00,,CLR,0.00,VWS V14.01,2013-04-27 19:08:00,
2013-04-27 15:13:00,63.7,46.8,30.34,SE,127,9.0,9.0,54,0.00,,CLR,0.00,VWS V14.01,2013-04-27 19:13:00,
2013-04-27 15:18:00,64.0,47.0,30.34,SE,135,7.0,9.0,54,0.00,,CLR,0.00,VWS V14.01,2013-04-27 19:18:00,
2013-04-27 15:23:00,64.4,45.9,30.34,SE,127,6.0,7.0,51,0.00,,CLR,0.00,VWS V14.01,2013-04-27 19:23:00,
2013-04-27 15:28:00,64.5,45.5,30.34,SSE,159,4.0,7.0,50,0.00,,CLR,0.00,VWS V14.01,2013-04-27 19:28:00,
2013-04-27 15:33:00,64.7,45.7,30.34,SE,146,4.0,7.0,50,0.00,,CLR,0.00,VWS V14.01,2013-04-27 19:33:00,
2013-04-27 15:38:00,64.8,46.3,30.33,SE,126,5.0,7.0,51,0.00,,CLR,0.00,VWS V14.01,2013-04-27 19:38:00,
2013-04-27 15:43:00,64.6,46.1,30.33,SSE,153,4.0,8.0,51,0.00,,CLR,0.00,VWS V14.01,2013-04-27 19:43:00,
2013-04-27 15:48:00,64.3,45.8,30.33,SE,130,7.0,9.0,51,0.00,,CLR,0.00,VWS V14.01,2013-04-27 19:48:00,
2013-04-27 15:53:00,64.1,45.1,30.33,SSE,168,4.0,7.0,50,0.00,,CLR,0.00,VWS V14.01,2013-04-27 19:53:00,
2013-04-27 15:58:00,64.0,44.5,30.33,SSE,151,5.0,7.0,49,0.00,,CLR,0.00,VWS V14.01,2013-04-27 19:58:00,
2013-04-27 16:03:00,63.8,45.9,30.33,SE,137,4.0,6.0,52,0.00,,CLR,0.00,VWS V14.01,2013-04-27 20:03:00,
2013-04-27 16:08:00,63.7,47.7,30.33,South,175,5.0,8.0,56,0.00,,CLR,0.00,VWS V14.01,2013-04-27 20:08:00,
2013-04-27 16:13:00,63.1,48.1,30.33,South,183,4.0,5.0,58,0.00,,CLR,0.00,VWS V14.01,2013-04-27 20:13:00,
2013-04-27 16:18:00,63.0,48.0,30.33,South,189,5.0,6.0,58,0.00,,CLR,0.00,VWS V14.01,2013-04-27 20:18:00,
2013-04-27 16:23:00,62.8,46.4,30.33,South,182,8.0,8.0,55,0.00,,CLR,0.00,VWS V14.01,2013-04-27 20:23:00,
2013-04-27 16:28:00,62.5,47.5,30.33,South,180,5.0,6.0,58,0.00,,CLR,0.00,VWS V14.01,2013-04-27 20:28:00,
2013-04-27 16:33:00,62.2,48.2,30.33,SSE,163,3.0,5.0,60,0.00,,CLR,0.00,VWS V14.01,2013-04-27 20:33:00,
2013-04-27 16:38:00,62.2,47.3,30.33,South,188,5.0,6.0,58,0.00,,CLR,0.00,VWS V14.01,2013-04-27 20:38:00,
2013-04-27 16:43:00,61.5,47.1,30.33,South,169,5.0,9.0,59,0.00,,CLR,0.00,VWS V14.01,2013-04-27 20:43:00,
2013-04-27 16:48:00,61.0,47.0,30.33,SSW,202,4.0,6.0,60,0.00,,CLR,0.00,VWS V14.01,2013-04-27 20:48:00,
2013-04-27 16:53:00,60.7,46.8,30.33,South,175,5.0,7.0,60,0.00,,CLR,0.00,VWS V14.01,2013-04-27 20:53:00,
2013-04-27 16:58:00,60.6,46.7,30.33,South,173,4.0,7.0,60,0.00,,CLR,0.00,VWS V14.01,2013-04-27 20:58:00,
2013-04-27 17:03:00,60.7,46.3,30.33,South,175,5.0,7.0,59,0.00,,CLR,0.00,VWS V14.01,2013-04-27 21:03:00,
2013-04-27 17:08:00,60.6,46.7,30.33,SSE,164,6.0,6.0,60,0.00,,CLR,0.00,VWS V14.01,2013-04-27 21:08:00,
2013-04-27 17:13:00,60.5,46.6,30.33,SSE,164,4.0,7.0,60,0.00,,CLR,0.00,VWS V14.01,2013-04-27 21:13:00,
2013-04-27 17:18:00,60.3,46.8,30.33,SSE,159,3.0,6.0,61,0.00,,CLR,0.00,VWS V14.01,2013-04-27 21:18:00,
2013-04-27 17:23:00,60.2,46.7,30.32,SSW,196,4.0,5.0,61,0.00,,CLR,0.00,VWS V14.01,2013-04-27 21:23:00,
2013-04-27 17:28:00,60.2,46.7,30.32,SSW,209,5.0,5.0,61,0.00,,CLR,0.00,VWS V14.01,2013-04-27 21:28:00,
2013-04-27 17:33:00,60.1,47.0,30.32,SSE,168,4.0,6.0,62,0.00,,CLR,0.00,VWS V14.01,2013-04-27 21:33:00,
2013-04-27 17:38:00,60.0,46.5,30.32,South,189,4.0,6.0,61,0.00,,CLR,0.00,VWS V14.01,2013-04-27 21:38:00,
2013-04-27 17:43:00,59.7,46.7,30.32,South,171,4.0,4.0,62,0.00,,CLR,0.00,VWS V14.01,2013-04-27 21:43:00,
2013-04-27 17:48:00,59.5,46.5,30.32,SSW,194,5.0,6.0,62,0.00,,CLR,0.00,VWS V14.01,2013-04-27 21:48:00,
2013-04-27 17:52:00,59.5,46.5,30.32,South,169,2.0,5.0,62,0.00,,CLR,0.00,VWS V14.01,2013-04-27 21:52:00,
2013-04-27 17:57:00,59.4,46.0,30.32,South,180,4.0,5.0,61,0.00,,CLR,0.00,VWS V14.01,2013-04-27 21:57:00,
2013-04-27 18:02:00,59.2,46.2,30.32,SSE,167,5.0,5.0,62,0.00,,CLR,0.00,VWS V14.01,2013-04-27 22:02:00,
2013-04-27 18:07:00,59.0,46.4,30.32,South,182,6.0,6.0,63,0.00,,CLR,0.00,VWS V14.01,2013-04-27 22:07:00,
2013-04-27 18:12:00,59.1,46.5,30.32,SSE,157,2.0,3.0,63,0.00,,CLR,0.00,VWS V14.01,2013-04-27 22:12:00,
2013-04-27 18:17:00,59.3,46.3,30.32,ESE,121,4.0,4.0,62,0.00,,CLR,0.00,VWS V14.01,2013-04-27 22:17:00,
2013-04-27 18:22:00,59.7,46.2,30.32,SSE,157,2.0,2.0,61,0.00,,CLR,0.00,VWS V14.01,2013-04-27 22:22:00,
2013-04-27 18:27:00,60.0,45.7,30.32,South,175,1.0,2.0,59,0.00,,CLR,0.00,VWS V14.01,2013-04-27 22:27:00,
2013-04-27 18:32:00,60.2,45.4,30.32,South,186,2.0,3.0,58,0.00,,CLR,0.00,VWS V14.01,2013-04-27 22:32:00,
2013-04-27 18:37:00,60.0,45.2,30.32,SE,129,3.0,4.0,58,0.00,,CLR,0.00,VWS V14.01,2013-04-27 22:37:00,
2013-04-27 18:42:00,59.9,46.0,30.32,SSE,148,1.0,3.0,60,0.00,,CLR,0.00,VWS V14.01,2013-04-27 22:42:00,
2013-04-27 18:47:00,59.7,45.4,30.32,South,169,1.0,2.0,59,0.00,,CLR,0.00,VWS V14.01,2013-04-27 22:47:00,
2013-04-27 18:52:00,59.6,45.7,30.32,SE,144,1.0,1.0,60,0.00,,CLR,0.00,VWS V14.01,2013-04-27 22:52:00,
2013-04-27 18:57:00,59.5,46.1,30.32,SE,143,6.0,6.0,61,0.00,,CLR,0.00,VWS V14.01,2013-04-27 22:57:00,
2013-04-27 19:02:00,58.8,46.2,30.31,SE,142,5.0,6.0,63,0.00,,CLR,0.00,VWS V14.01,2013-04-27 23:02:00,
2013-04-27 19:07:00,57.9,46.2,30.31,SE,132,6.0,6.0,65,0.00,,CLR,0.00,VWS V14.01,2013-04-27 23:07:00,
2013-04-27 19:12:00,57.2,46.4,30.31,SE,134,2.0,3.0,67,0.00,,CLR,0.00,VWS V14.01,2013-04-27 23:12:00,
2013-04-27 19:17:00,56.6,46.2,30.31,SE,130,4.0,5.0,68,0.00,,CLR,0.00,VWS V14.01,2013-04-27 23:17:00,
2013-04-27 19:22:00,56.0,46.0,30.31,SSE,161,2.0,2.0,69,0.00,,CLR,0.00,VWS V14.01,2013-04-27 23:22:00,
2013-04-27 19:27:00,55.5,45.9,30.31,SE,142,4.0,4.0,70,0.00,,CLR,0.00,VWS V14.01,2013-04-27 23:27:00,
2013-04-27 19:32:00,55.0,45.8,30.31,SE,139,3.0,3.0,71,0.00,,CLR,0.00,VWS V14.01,2013-04-27 23:32:00,
2013-04-27 19:37:00,54.4,45.9,30.31,SE,127,3.0,4.0,73,0.00,,CLR,0.00,VWS V14.01,2013-04-27 23:37:00,
2013-04-27 19:42:00,53.9,46.2,30.30,SE,132,3.0,4.0,75,0.00,,CLR,0.00,VWS V14.01,2013-04-27 23:42:00,
2013-04-27 19:47:00,53.5,46.1,30.31,SSE,150,1.0,1.0,76,0.00,,CLR,0.00,VWS V14.01,2013-04-27 23:47:00,
2013-04-27 19:52:00,53.1,46.1,30.30,SSE,159,0.0,1.0,77,0.00,,CLR,0.00,VWS V14.01,2013-04-27 23:52:00,
2013-04-27 19:57:00,52.8,46.1,30.30,SSE,157,1.0,2.0,78,0.00,,CLR,0.00,VWS V14.01,2013-04-27 23:57:00,
2013-04-27 20:02:00,52.5,45.8,30.30,SSE,149,2.0,2.0,78,0.00,,CLR,0.00,VWS V14.01,2013-04-28 00:02:00,
2013-04-27 20:07:00,52.2,46.2,30.30,South,178,2.0,2.0,80,0.00,,CLR,0.00,VWS V14.01,2013-04-28 00:07:00,
2013-04-27 20:12:00,52.0,46.4,30.30,SSW,203,4.0,4.0,81,0.00,,CLR,0.00,VWS V14.01,2013-04-28 00:12:00,
2013-04-27 20:17:00,51.9,46.6,30.30,South,188,3.0,6.0,82,0.00,,CLR,0.00,VWS V14.01,2013-04-28 00:17:00,
2013-04-27 20:22:00,51.8,46.8,30.31,South,186,3.0,3.0,83,0.00,,CLR,0.00,VWS V14.01,2013-04-28 00:22:00,
2013-04-27 20:27:00,51.7,47.0,30.31,SSE,161,3.0,5.0,84,0.00,,CLR,0.00,VWS V14.01,2013-04-28 00:27:00,
2013-04-27 20:32:00,51.6,47.2,30.31,South,171,4.0,4.0,85,0.00,,CLR,0.00,VWS V14.01,2013-04-28 00:32:00,
2013-04-27 20:37:00,51.5,47.2,30.31,South,190,2.0,3.0,85,0.00,,CLR,0.00,VWS V14.01,2013-04-28 00:37:00,
2013-04-27 20:42:00,51.5,47.5,30.31,SSW,202,5.0,5.0,86,0.00,,CLR,0.00,VWS V14.01,2013-04-28 00:42:00,
2013-04-27 20:47:00,51.4,47.4,30.31,SSE,163,5.0,5.0,86,0.00,,CLR,0.00,VWS V14.01,2013-04-28 00:47:00,
2013-04-27 20:52:00,51.3,47.6,30.31,SSW,203,4.0,6.0,87,0.00,,CLR,0.00,VWS V14.01,2013-04-28 00:52:00,
2013-04-27 20:57:00,51.2,47.5,30.31,SSW,201,3.0,5.0,87,0.00,,CLR,0.00,VWS V14.01,2013-04-28 00:57:00,
2013-04-27 21:02:00,51.1,47.4,30.31,SE,146,3.0,3.0,87,0.00,,CLR,0.00,VWS V14.01,2013-04-28 01:02:00,
2013-04-27 21:07:00,51.1,47.1,30.31,SSE,165,4.0,4.0,86,0.00,,CLR,0.00,VWS V14.01,2013-04-28 01:07:00,
2013-04-27 21:12:00,51.0,47.0,30.31,South,170,3.0,3.0,86,0.00,,CLR,0.00,VWS V14.01,2013-04-28 01:12:00,
2013-04-27 21:17:00,51.0,47.3,30.32,South,186,7.0,7.0,87,0.00,,CLR,0.00,VWS V14.01,2013-04-28 01:17:00,
2013-04-27 21:22:00,51.0,47.3,30.32,South,190,6.0,6.0,87,0.00,,CLR,0.00,VWS V14.01,2013-04-28 01:22:00,
2013-04-27 21:27:00,50.9,47.2,30.31,South,186,6.0,6.0,87,0.00,,CLR,0.00,VWS V14.01,2013-04-28 01:27:00,
2013-04-27 21:32:00,50.9,47.2,30.31,South,175,3.0,4.0,87,0.00,,CLR,0.00,VWS V14.01,2013-04-28 01:32:00,
2013-04-27 21:37:00,50.9,47.5,30.31,South,178,3.0,3.0,88,0.00,,CLR,0.00,VWS V14.01,2013-04-28 01:37:00,
2013-04-27 21:42:00,50.8,47.4,30.31,South,184,4.0,5.0,88,0.00,,CLR,0.00,VWS V14.01,2013-04-28 01:42:00,
2013-04-27 21:47:00,50.8,47.4,30.31,South,189,5.0,5.0,88,0.00,,CLR,0.00,VWS V14.01,2013-04-28 01:47:00,
2013-04-27 21:52:00,50.8,47.4,30.31,South,174,3.0,4.0,88,0.00,,CLR,0.00,VWS V14.01,2013-04-28 01:52:00,
2013-04-27 21:57:00,50.8,47.4,30.31,South,182,3.0,3.0,88,0.00,,CLR,0.00,VWS V14.01,2013-04-28 01:57:00,
2013-04-27 22:03:00,50.8,47.7,30.31,SSW,203,3.0,4.0,89,0.00,,CLR,0.00,VWS V14.01,2013-04-28 02:03:00,
2013-04-27 22:08:00,50.8,47.7,30.31,South,170,4.0,5.0,89,0.00,,CLR,0.00,VWS V14.01,2013-04-28 02:08:00,
2013-04-27 22:13:00,50.8,47.7,30.31,South,169,4.0,5.0,89,0.00,,CLR,0.00,VWS V14.01,2013-04-28 02:13:00,
2013-04-27 22:18:00,50.7,47.6,30.31,SSW,194,6.0,6.0,89,0.00,,CLR,0.00,VWS V14.01,2013-04-28 02:18:00,
2013-04-27 22:23:00,50.7,47.9,30.31,South,174,2.0,5.0,90,0.00,,CLR,0.00,VWS V14.01,2013-04-28 02:23:00,
2013-04-27 22:28:00,50.7,47.9,30.31,SSE,164,5.0,5.0,90,0.00,,CLR,0.00,VWS V14.01,2013-04-28 02:28:00,
2013-04-27 22:32:00,50.6,47.8,30.31,SSE,148,4.0,4.0,90,0.00,,CLR,0.00,VWS V14.01,2013-04-28 02:32:00,
2013-04-27 22:37:00,50.6,47.8,30.31,South,174,4.0,4.0,90,0.00,,CLR,0.00,VWS V14.01,2013-04-28 02:37:00,
2013-04-27 22:42:00,50.6,48.1,30.31,South,187,3.0,3.0,91,0.00,,CLR,0.00,VWS V14.01,2013-04-28 02:42:00,
2013-04-27 22:47:00,50.6,48.1,30.31,SSW,194,3.0,4.0,91,0.00,,CLR,0.00,VWS V14.01,2013-04-28 02:47:00,
2013-04-27 22:52:00,50.5,48.0,30.31,South,171,5.0,5.0,91,0.00,,CLR,0.00,VWS V14.01,2013-04-28 02:52:00,
2013-04-27 22:57:00,50.5,48.0,30.31,SSW,199,3.0,4.0,91,0.00,,CLR,0.00,VWS V14.01,2013-04-28 02:57:00,
2013-04-27 23:02:00,50.5,48.0,30.30,SSW,194,5.0,5.0,91,0.00,,CLR,0.00,VWS V14.01,2013-04-28 03:02:00,
2013-04-27 23:07:00,50.5,48.0,30.30,SSW,198,3.0,4.0,91,0.00,,CLR,0.00,VWS V14.01,2013-04-28 03:07:00,
2013-04-27 23:12:00,50.4,47.9,30.30,SSW,202,5.0,8.0,91,0.00,,CLR,0.00,VWS V14.01,2013-04-28 03:12:00,
2013-04-27 23:17:00,50.3,47.8,30.30,SSW,194,4.0,5.0,91,0.00,,CLR,0.00,VWS V14.01,2013-04-28 03:17:00,
2013-04-27 23:23:00,50.3,47.8,30.30,SSW,205,6.0,7.0,91,0.00,,CLR,0.00,VWS V14.01,2013-04-28 03:23:00,
2013-04-27 23:28:00,50.3,48.1,30.30,SSW,204,5.0,6.0,92,0.00,,CLR,0.00,VWS V14.01,2013-04-28 03:28:00,
2013-04-27 23:33:00,50.2,48.0,30.30,South,175,2.0,6.0,92,0.00,,CLR,0.00,VWS V14.01,2013-04-28 03:33:00,
2013-04-27 23:38:00,50.2,48.0,30.30,SSW,195,4.0,6.0,92,0.00,,CLR,0.00,VWS V14.01,2013-04-28 03:38:00,
2013-04-27 23:43:00,50.2,48.0,30.29,South,186,5.0,5.0,92,0.00,,CLR,0.00,VWS V14.01,2013-04-28 03:43:00,
2013-04-27 23:48:00,50.3,48.1,30.30,SSW,204,7.0,7.0,92,0.00,,CLR,0.00,VWS V14.01,2013-04-28 03:48:00,
2013-04-27 23:53:00,50.3,48.1,30.30,South,186,5.0,7.0,92,0.00,,CLR,0.00,VWS V14.01,2013-04-28 03:53:00,
2013-04-27 23:58:00,50.3,48.1,30.30,South,181,2.0,5.0,92,0.00,,CLR,0.00,VWS V14.01,2013-04-28 03:58:00,